sensor_id;sensor_type;location;lat;lon;timestamp;P1;durP1;ratioP1;P2;durP2;ratioP2
4428;SDS011;2227;47.810;8.810;2023-02-02T04:46:44;615.07;;;550.10;;
4428;SDS011;2227;47.810;8.810;2023-02-02T04:49:11;624.55;;;559.55;;
4428;SDS011;2227;47.810;8.810;2023-02-02T04:51:38;630.70;;;564.78;;
4428;SDS011;2227;47.810;8.810;2023-02-02T04:54:06;611.53;;;546.13;;
4428;SDS011;2227;47.810;8.810;2023-02-02T04:56:33;620.75;;;554.88;;
4428;SDS011;2227;47.810;8.810;2023-02-02T04:59:00;609.97;;;544.53;;
4428;SDS011;2227;47.810;8.810;2023-02-02T05:01:27;613.80;;;548.33;;
4428;SDS011;2227;47.810;8.810;2023-02-02T05:03:56;620.38;;;555.35;;
4428;SDS011;2227;47.810;8.810;2023-02-02T05:06:22;619.93;;;554.33;;
4428;SDS011;2227;47.810;8.810;2023-02-02T05:08:50;621.70;;;555.80;;
4428;SDS011;2227;47.810;8.810;2023-02-02T05:11:18;624.63;;;559.10;;
4428;SDS011;2227;47.810;8.810;2023-02-02T05:13:47;621.75;;;555.97;;
4428;SDS011;2227;47.810;8.810;2023-02-02T05:16:15;626.42;;;561.13;;
4428;SDS011;2227;47.810;8.810;2023-02-02T05:18:42;612.50;;;546.88;;
4428;SDS011;2227;47.810;8.810;2023-02-02T05:21:14;617.03;;;550.92;;
4428;SDS011;2227;47.810;8.810;2023-02-02T05:23:41;625.03;;;559.55;;
4428;SDS011;2227;47.810;8.810;2023-02-02T05:26:10;622.15;;;556.22;;
4428;SDS011;2227;47.810;8.810;2023-02-02T05:28:41;618.80;;;553.28;;
4428;SDS011;2227;47.810;8.810;2023-02-02T05:31:08;613.50;;;546.80;;
4428;SDS011;2227;47.810;8.810;2023-02-02T05:33:35;626.03;;;559.72;;
4428;SDS011;2227;47.810;8.810;2023-02-02T05:36:02;618.85;;;553.53;;
4428;SDS011;2227;47.810;8.810;2023-02-02T05:38:29;619.17;;;553.27;;
4428;SDS011;2227;47.810;8.810;2023-02-02T05:40:56;619.92;;;553.95;;
4428;SDS011;2227;47.810;8.810;2023-02-02T05:43:24;618.20;;;553.05;;
4428;SDS011;2227;47.810;8.810;2023-02-02T05:45:52;622.58;;;556.55;;
4428;SDS011;2227;47.810;8.810;2023-02-02T05:48:19;614.60;;;548.67;;
4428;SDS011;2227;47.810;8.810;2023-02-02T05:50:47;620.40;;;554.80;;
4428;SDS011;2227;47.810;8.810;2023-02-02T05:53:27;619.03;;;553.63;;
4428;SDS011;2227;47.810;8.810;2023-02-02T05:55:55;615.28;;;549.67;;
4428;SDS011;2227;47.810;8.810;2023-02-02T05:58:21;622.45;;;557.33;;
4428;SDS011;2227;47.810;8.810;2023-02-02T06:00:48;618.90;;;554.28;;
4428;SDS011;2227;47.810;8.810;2023-02-02T06:03:15;629.83;;;565.03;;
4428;SDS011;2227;47.810;8.810;2023-02-02T06:05:42;621.58;;;556.22;;
4428;SDS011;2227;47.810;8.810;2023-02-02T06:08:09;619.72;;;555.45;;
4428;SDS011;2227;47.810;8.810;2023-02-02T06:10:39;622.20;;;556.95;;
4428;SDS011;2227;47.810;8.810;2023-02-02T06:13:07;622.40;;;557.75;;
4428;SDS011;2227;47.810;8.810;2023-02-02T06:15:34;628.70;;;564.25;;
4428;SDS011;2227;47.810;8.810;2023-02-02T06:18:01;643.47;;;578.28;;
4428;SDS011;2227;47.810;8.810;2023-02-02T06:20:31;655.10;;;589.03;;
4428;SDS011;2227;47.810;8.810;2023-02-02T06:22:58;644.07;;;578.73;;
4428;SDS011;2227;47.810;8.810;2023-02-02T06:25:24;647.67;;;582.20;;
4428;SDS011;2227;47.810;8.810;2023-02-02T06:27:55;651.28;;;585.88;;
4428;SDS011;2227;47.810;8.810;2023-02-02T06:30:23;644.22;;;578.40;;
4428;SDS011;2227;47.810;8.810;2023-02-02T06:32:49;649.83;;;583.53;;
4428;SDS011;2227;47.810;8.810;2023-02-02T06:35:16;640.25;;;574.38;;
4428;SDS011;2227;47.810;8.810;2023-02-02T06:37:43;647.97;;;581.97;;
4428;SDS011;2227;47.810;8.810;2023-02-02T06:40:10;639.50;;;573.50;;
4428;SDS011;2227;47.810;8.810;2023-02-02T06:42:38;641.47;;;575.80;;
4428;SDS011;2227;47.810;8.810;2023-02-02T06:45:06;645.95;;;579.08;;
4428;SDS011;2227;47.810;8.810;2023-02-02T06:47:33;641.38;;;574.55;;
4428;SDS011;2227;47.810;8.810;2023-02-02T06:50:00;652.30;;;585.75;;
4428;SDS011;2227;47.810;8.810;2023-02-02T06:52:26;650.78;;;584.38;;
4428;SDS011;2227;47.810;8.810;2023-02-02T06:54:53;648.67;;;582.20;;
4428;SDS011;2227;47.810;8.810;2023-02-02T06:57:20;650.63;;;583.95;;
4428;SDS011;2227;47.810;8.810;2023-02-02T06:59:47;640.05;;;573.83;;
4428;SDS011;2227;47.810;8.810;2023-02-02T07:02:13;650.03;;;583.27;;
4428;SDS011;2227;47.810;8.810;2023-02-02T07:04:40;649.20;;;582.63;;
4428;SDS011;2227;47.810;8.810;2023-02-02T07:07:07;656.22;;;589.72;;
4428;SDS011;2227;47.810;8.810;2023-02-02T07:09:34;649.97;;;583.17;;
4428;SDS011;2227;47.810;8.810;2023-02-02T07:12:01;657.42;;;591.17;;
4428;SDS011;2227;47.810;8.810;2023-02-02T07:14:27;651.97;;;585.20;;
4428;SDS011;2227;47.810;8.810;2023-02-02T07:16:54;645.38;;;578.85;;
4428;SDS011;2227;47.810;8.810;2023-02-02T07:19:21;652.65;;;586.35;;
4428;SDS011;2227;47.810;8.810;2023-02-02T07:21:47;657.33;;;590.63;;
4428;SDS011;2227;47.810;8.810;2023-02-02T07:24:14;630.85;;;565.25;;
4428;SDS011;2227;47.810;8.810;2023-02-02T07:26:41;631.03;;;565.08;;
4428;SDS011;2227;47.810;8.810;2023-02-02T07:29:13;629.40;;;563.38;;
4428;SDS011;2227;47.810;8.810;2023-02-02T07:31:39;647.25;;;581.10;;
4428;SDS011;2227;47.810;8.810;2023-02-02T07:34:06;655.15;;;588.38;;
4428;SDS011;2227;47.810;8.810;2023-02-02T07:36:33;643.25;;;577.60;;
4428;SDS011;2227;47.810;8.810;2023-02-02T07:39:00;658.50;;;592.70;;
4428;SDS011;2227;47.810;8.810;2023-02-02T07:41:30;651.80;;;585.03;;
4428;SDS011;2227;47.810;8.810;2023-02-02T07:43:57;651.00;;;584.17;;
4428;SDS011;2227;47.810;8.810;2023-02-02T07:46:24;645.90;;;580.00;;
4428;SDS011;2227;47.810;8.810;2023-02-02T07:48:54;644.40;;;578.30;;
4428;SDS011;2227;47.810;8.810;2023-02-02T07:51:22;645.85;;;579.67;;
4428;SDS011;2227;47.810;8.810;2023-02-02T07:53:51;651.00;;;584.60;;
4428;SDS011;2227;47.810;8.810;2023-02-02T07:56:20;656.88;;;590.45;;
4428;SDS011;2227;47.810;8.810;2023-02-02T07:58:50;653.70;;;587.33;;
4428;SDS011;2227;47.810;8.810;2023-02-02T08:01:18;651.40;;;584.67;;
4428;SDS011;2227;47.810;8.810;2023-02-02T08:03:48;652.08;;;585.60;;
4428;SDS011;2227;47.810;8.810;2023-02-02T08:08:47;644.38;;;577.28;;
4428;SDS011;2227;47.810;8.810;2023-02-02T08:11:15;656.45;;;589.53;;
4428;SDS011;2227;47.810;8.810;2023-02-02T08:13:43;655.28;;;588.58;;
4428;SDS011;2227;47.810;8.810;2023-02-02T08:16:13;630.67;;;563.05;;
4428;SDS011;2227;47.810;8.810;2023-02-02T08:18:40;629.35;;;562.88;;
4428;SDS011;2227;47.810;8.810;2023-02-02T08:21:07;642.72;;;576.08;;
4428;SDS011;2227;47.810;8.810;2023-02-02T08:23:35;657.13;;;589.55;;
4428;SDS011;2227;47.810;8.810;2023-02-02T08:28:35;652.38;;;585.97;;
4428;SDS011;2227;47.810;8.810;2023-02-02T08:31:03;657.15;;;589.97;;
4428;SDS011;2227;47.810;8.810;2023-02-02T08:33:41;657.70;;;590.33;;
4428;SDS011;2227;47.810;8.810;2023-02-02T08:36:11;661.95;;;594.80;;
4428;SDS011;2227;47.810;8.810;2023-02-02T08:38:39;660.78;;;594.15;;
4428;SDS011;2227;47.810;8.810;2023-02-02T08:41:07;663.03;;;596.13;;
4428;SDS011;2227;47.810;8.810;2023-02-02T08:43:35;661.80;;;594.85;;
4428;SDS011;2227;47.810;8.810;2023-02-02T08:46:02;661.65;;;595.03;;
4428;SDS011;2227;47.810;8.810;2023-02-02T08:48:31;664.88;;;598.78;;
4428;SDS011;2227;47.810;8.810;2023-02-02T08:50:58;669.17;;;602.63;;
4428;SDS011;2227;47.810;8.810;2023-02-02T08:53:25;660.75;;;594.72;;
4428;SDS011;2227;47.810;8.810;2023-02-02T08:56:00;663.28;;;597.30;;
4428;SDS011;2227;47.810;8.810;2023-02-02T08:58:29;658.15;;;593.17;;
4428;SDS011;2227;47.810;8.810;2023-02-02T09:01:06;662.25;;;596.17;;
4428;SDS011;2227;47.810;8.810;2023-02-02T09:03:38;678.45;;;612.55;;
4428;SDS011;2227;47.810;8.810;2023-02-02T09:06:06;662.38;;;597.10;;
4428;SDS011;2227;47.810;8.810;2023-02-02T09:08:34;663.80;;;598.25;;
4428;SDS011;2227;47.810;8.810;2023-02-02T09:11:14;664.13;;;598.90;;
4428;SDS011;2227;47.810;8.810;2023-02-02T09:13:43;676.88;;;611.67;;
4428;SDS011;2227;47.810;8.810;2023-02-02T09:16:11;676.70;;;610.85;;
4428;SDS011;2227;47.810;8.810;2023-02-02T09:18:40;671.75;;;606.90;;
4428;SDS011;2227;47.810;8.810;2023-02-02T09:21:09;675.45;;;610.72;;
4428;SDS011;2227;47.810;8.810;2023-02-02T09:23:38;678.28;;;613.35;;
4428;SDS011;2227;47.810;8.810;2023-02-02T09:28:41;667.50;;;601.70;;
4428;SDS011;2227;47.810;8.810;2023-02-02T09:31:09;672.53;;;606.33;;
4428;SDS011;2227;47.810;8.810;2023-02-02T09:33:36;662.58;;;596.92;;
4428;SDS011;2227;47.810;8.810;2023-02-02T09:36:22;664.55;;;599.95;;
4428;SDS011;2227;47.810;8.810;2023-02-02T09:38:50;667.28;;;602.53;;
4428;SDS011;2227;47.810;8.810;2023-02-02T09:49:03;671.28;;;605.97;;
4428;SDS011;2227;47.810;8.810;2023-02-02T09:51:42;679.83;;;614.40;;
4428;SDS011;2227;47.810;8.810;2023-02-02T09:54:18;667.47;;;602.90;;
4428;SDS011;2227;47.810;8.810;2023-02-02T09:57:03;689.10;;;624.63;;
4428;SDS011;2227;47.810;8.810;2023-02-02T09:59:36;678.47;;;614.10;;
4428;SDS011;2227;47.810;8.810;2023-02-02T10:02:41;687.92;;;622.58;;
4428;SDS011;2227;47.810;8.810;2023-02-02T10:05:06;683.30;;;618.17;;
4428;SDS011;2227;47.810;8.810;2023-02-02T10:08:00;683.22;;;618.03;;
4428;SDS011;2227;47.810;8.810;2023-02-02T10:10:34;681.70;;;617.40;;
4428;SDS011;2227;47.810;8.810;2023-02-02T10:13:13;686.42;;;620.53;;
4428;SDS011;2227;47.810;8.810;2023-02-02T10:15:44;687.88;;;623.10;;
4428;SDS011;2227;47.810;8.810;2023-02-02T10:24:20;688.85;;;623.38;;
4428;SDS011;2227;47.810;8.810;2023-02-02T10:26:54;680.45;;;614.72;;
4428;SDS011;2227;47.810;8.810;2023-02-02T10:29:28;682.03;;;616.13;;
4428;SDS011;2227;47.810;8.810;2023-02-02T10:32:15;677.30;;;611.90;;
4428;SDS011;2227;47.810;8.810;2023-02-02T10:34:55;704.05;;;629.65;;
4428;SDS011;2227;47.810;8.810;2023-02-02T10:37:46;668.70;;;602.67;;
4428;SDS011;2227;47.810;8.810;2023-02-02T10:43:29;676.88;;;611.15;;
4428;SDS011;2227;47.810;8.810;2023-02-02T10:46:15;682.90;;;618.33;;
4428;SDS011;2227;47.810;8.810;2023-02-02T10:48:48;681.92;;;617.63;;
4428;SDS011;2227;47.810;8.810;2023-02-02T10:53:55;701.38;;;635.97;;
4428;SDS011;2227;47.810;8.810;2023-02-02T10:56:27;691.97;;;627.25;;
4428;SDS011;2227;47.810;8.810;2023-02-02T10:59:10;702.83;;;638.03;;
4428;SDS011;2227;47.810;8.810;2023-02-02T11:01:52;696.60;;;631.40;;
4428;SDS011;2227;47.810;8.810;2023-02-02T11:04:19;694.05;;;629.17;;
4428;SDS011;2227;47.810;8.810;2023-02-02T11:07:05;692.53;;;628.30;;
4428;SDS011;2227;47.810;8.810;2023-02-02T11:09:34;704.67;;;640.13;;
4428;SDS011;2227;47.810;8.810;2023-02-02T11:14:58;703.45;;;638.92;;
4428;SDS011;2227;47.810;8.810;2023-02-02T11:17:30;702.78;;;638.17;;
4428;SDS011;2227;47.810;8.810;2023-02-02T11:19:58;706.10;;;641.00;;
4428;SDS011;2227;47.810;8.810;2023-02-02T11:25:06;696.55;;;630.40;;
4428;SDS011;2227;47.810;8.810;2023-02-02T11:27:48;697.45;;;631.38;;
4428;SDS011;2227;47.810;8.810;2023-02-02T11:32:53;697.95;;;631.55;;
4428;SDS011;2227;47.810;8.810;2023-02-02T11:35:22;680.10;;;614.60;;
4428;SDS011;2227;47.810;8.810;2023-02-02T11:37:55;693.20;;;626.28;;
4428;SDS011;2227;47.810;8.810;2023-02-02T11:42:57;693.50;;;627.53;;
4428;SDS011;2227;47.810;8.810;2023-02-02T11:47:52;699.27;;;633.37;;
4428;SDS011;2227;47.810;8.810;2023-02-02T11:50:25;691.88;;;626.97;;
4428;SDS011;2227;47.810;8.810;2023-02-02T11:52:53;698.10;;;633.35;;
4428;SDS011;2227;47.810;8.810;2023-02-02T11:55:23;698.30;;;633.10;;
4428;SDS011;2227;47.810;8.810;2023-02-02T12:00:45;693.30;;;627.50;;
4428;SDS011;2227;47.810;8.810;2023-02-02T12:05:57;690.75;;;626.58;;
4428;SDS011;2227;47.810;8.810;2023-02-02T12:08:24;702.03;;;636.53;;
4428;SDS011;2227;47.810;8.810;2023-02-02T12:11:00;702.60;;;636.55;;
4428;SDS011;2227;47.810;8.810;2023-02-02T12:13:47;695.08;;;630.13;;
4428;SDS011;2227;47.810;8.810;2023-02-02T12:16:28;694.05;;;628.85;;
4428;SDS011;2227;47.810;8.810;2023-02-02T12:24:38;693.47;;;627.45;;
4428;SDS011;2227;47.810;8.810;2023-02-02T12:27:29;686.85;;;621.00;;
4428;SDS011;2227;47.810;8.810;2023-02-02T12:40:44;689.80;;;625.40;;
4428;SDS011;2227;47.810;8.810;2023-02-02T12:53:49;699.35;;;634.63;;
4428;SDS011;2227;47.810;8.810;2023-02-02T13:10:25;695.85;;;630.83;;
4428;SDS011;2227;47.810;8.810;2023-02-02T13:13:00;703.55;;;637.95;;
4428;SDS011;2227;47.810;8.810;2023-02-02T13:15:38;694.58;;;629.83;;
4428;SDS011;2227;47.810;8.810;2023-02-02T13:18:13;694.80;;;629.97;;
4428;SDS011;2227;47.810;8.810;2023-02-02T13:20:48;691.90;;;626.20;;
4428;SDS011;2227;47.810;8.810;2023-02-02T13:24:02;684.85;;;619.90;;
4428;SDS011;2227;47.810;8.810;2023-02-02T13:26:17;683.25;;;617.55;;
4428;SDS011;2227;47.810;8.810;2023-02-02T13:28:50;688.60;;;622.85;;
4428;SDS011;2227;47.810;8.810;2023-02-02T13:34:16;693.08;;;627.53;;
4428;SDS011;2227;47.810;8.810;2023-02-02T13:36:55;690.92;;;625.22;;
4428;SDS011;2227;47.810;8.810;2023-02-02T13:39:57;691.17;;;624.78;;
4428;SDS011;2227;47.810;8.810;2023-02-02T13:42:35;690.03;;;624.72;;
4428;SDS011;2227;47.810;8.810;2023-02-02T13:45:54;698.08;;;632.78;;
4428;SDS011;2227;47.810;8.810;2023-02-02T13:48:31;694.95;;;629.15;;
4428;SDS011;2227;47.810;8.810;2023-02-02T14:02:16;693.22;;;627.33;;
4428;SDS011;2227;47.810;8.810;2023-02-02T14:05:03;701.83;;;635.90;;
4428;SDS011;2227;47.810;8.810;2023-02-02T14:07:36;691.33;;;625.13;;
4428;SDS011;2227;47.810;8.810;2023-02-02T14:10:25;693.75;;;627.85;;
4428;SDS011;2227;47.810;8.810;2023-02-02T14:12:54;702.55;;;635.05;;
4428;SDS011;2227;47.810;8.810;2023-02-02T14:15:37;692.20;;;626.17;;
4428;SDS011;2227;47.810;8.810;2023-02-02T14:18:06;699.50;;;631.97;;
4428;SDS011;2227;47.810;8.810;2023-02-02T14:20:40;707.95;;;640.65;;
4428;SDS011;2227;47.810;8.810;2023-02-02T14:26:17;703.35;;;635.55;;
4428;SDS011;2227;47.810;8.810;2023-02-02T14:34:53;698.58;;;631.58;;
4428;SDS011;2227;47.810;8.810;2023-02-02T14:40:02;703.75;;;635.97;;
4428;SDS011;2227;47.810;8.810;2023-02-02T14:46:15;703.90;;;636.58;;
4428;SDS011;2227;47.810;8.810;2023-02-02T14:49:21;698.80;;;631.33;;
4428;SDS011;2227;47.810;8.810;2023-02-02T14:51:28;703.15;;;635.35;;
4428;SDS011;2227;47.810;8.810;2023-02-02T14:54:01;689.40;;;621.30;;
4428;SDS011;2227;47.810;8.810;2023-02-02T14:59:11;692.90;;;625.92;;
4428;SDS011;2227;47.810;8.810;2023-02-02T15:01:54;701.85;;;635.05;;
4428;SDS011;2227;47.810;8.810;2023-02-02T15:04:42;690.33;;;623.15;;
4428;SDS011;2227;47.810;8.810;2023-02-02T15:09:49;689.17;;;622.20;;
4428;SDS011;2227;47.810;8.810;2023-02-02T15:12:59;696.47;;;629.40;;
4428;SDS011;2227;47.810;8.810;2023-02-02T15:15:18;696.40;;;629.13;;
4428;SDS011;2227;47.810;8.810;2023-02-02T15:17:52;685.97;;;617.92;;
4428;SDS011;2227;47.810;8.810;2023-02-02T15:20:41;681.38;;;613.58;;
4428;SDS011;2227;47.810;8.810;2023-02-02T15:28:36;696.13;;;628.33;;
4428;SDS011;2227;47.810;8.810;2023-02-02T15:31:22;692.28;;;624.92;;
4428;SDS011;2227;47.810;8.810;2023-02-02T15:34:23;683.83;;;615.93;;
4428;SDS011;2227;47.810;8.810;2023-02-02T15:37:04;680.90;;;613.47;;
4428;SDS011;2227;47.810;8.810;2023-02-02T15:39:37;681.72;;;614.10;;
4428;SDS011;2227;47.810;8.810;2023-02-02T15:42:17;691.65;;;624.00;;
4428;SDS011;2227;47.810;8.810;2023-02-02T15:45:27;683.20;;;615.80;;
4428;SDS011;2227;47.810;8.810;2023-02-02T15:47:54;693.57;;;625.83;;
4428;SDS011;2227;47.810;8.810;2023-02-02T15:50:22;683.20;;;616.38;;
4428;SDS011;2227;47.810;8.810;2023-02-02T15:52:50;693.55;;;626.38;;
4428;SDS011;2227;47.810;8.810;2023-02-02T15:55:29;693.88;;;626.20;;
4428;SDS011;2227;47.810;8.810;2023-02-02T15:58:00;694.30;;;626.72;;
4428;SDS011;2227;47.810;8.810;2023-02-02T16:00:29;691.10;;;622.95;;
4428;SDS011;2227;47.810;8.810;2023-02-02T16:07:59;692.05;;;624.83;;
4428;SDS011;2227;47.810;8.810;2023-02-02T16:10:32;698.33;;;630.90;;
4428;SDS011;2227;47.810;8.810;2023-02-02T16:13:00;689.78;;;621.85;;
4428;SDS011;2227;47.810;8.810;2023-02-02T16:15:28;689.93;;;622.23;;
4428;SDS011;2227;47.810;8.810;2023-02-02T16:18:00;693.65;;;626.45;;
4428;SDS011;2227;47.810;8.810;2023-02-02T16:20:33;695.80;;;628.42;;
4428;SDS011;2227;47.810;8.810;2023-02-02T16:23:02;698.00;;;630.13;;
4428;SDS011;2227;47.810;8.810;2023-02-02T16:25:35;689.20;;;622.00;;
4428;SDS011;2227;47.810;8.810;2023-02-02T16:28:10;698.13;;;630.07;;
4428;SDS011;2227;47.810;8.810;2023-02-02T16:30:40;694.38;;;627.45;;
4428;SDS011;2227;47.810;8.810;2023-02-02T16:35:54;689.00;;;620.90;;
4428;SDS011;2227;47.810;8.810;2023-02-02T16:41:06;701.95;;;632.80;;
4428;SDS011;2227;47.810;8.810;2023-02-02T16:43:36;701.42;;;633.83;;
4428;SDS011;2227;47.810;8.810;2023-02-02T16:46:08;701.87;;;633.97;;
4428;SDS011;2227;47.810;8.810;2023-02-02T16:48:44;698.78;;;630.95;;
4428;SDS011;2227;47.810;8.810;2023-02-02T16:51:22;700.42;;;632.10;;
4428;SDS011;2227;47.810;8.810;2023-02-02T16:54:10;705.55;;;637.03;;
4428;SDS011;2227;47.810;8.810;2023-02-02T16:56:51;696.30;;;628.85;;
4428;SDS011;2227;47.810;8.810;2023-02-02T16:59:33;701.38;;;632.13;;
4428;SDS011;2227;47.810;8.810;2023-02-02T17:02:03;691.63;;;623.92;;
4428;SDS011;2227;47.810;8.810;2023-02-02T17:04:47;697.03;;;628.97;;
4428;SDS011;2227;47.810;8.810;2023-02-02T17:07:17;704.73;;;635.80;;
4428;SDS011;2227;47.810;8.810;2023-02-02T17:09:46;701.15;;;631.78;;
4428;SDS011;2227;47.810;8.810;2023-02-02T17:15:47;699.45;;;631.13;;
4428;SDS011;2227;47.810;8.810;2023-02-02T17:17:59;697.50;;;628.95;;
4428;SDS011;2227;47.810;8.810;2023-02-02T17:20:27;705.33;;;637.67;;
4428;SDS011;2227;47.810;8.810;2023-02-02T17:22:58;708.88;;;641.08;;
4428;SDS011;2227;47.810;8.810;2023-02-02T17:27:58;715.85;;;648.20;;
4428;SDS011;2227;47.810;8.810;2023-02-02T17:30:25;715.27;;;646.27;;
4428;SDS011;2227;47.810;8.810;2023-02-02T17:32:54;702.17;;;633.67;;
4428;SDS011;2227;47.810;8.810;2023-02-02T17:35:22;708.53;;;640.37;;
4428;SDS011;2227;47.810;8.810;2023-02-02T17:37:50;712.97;;;644.58;;
4428;SDS011;2227;47.810;8.810;2023-02-02T17:40:19;714.40;;;646.50;;
4428;SDS011;2227;47.810;8.810;2023-02-02T17:42:51;724.13;;;655.90;;
4428;SDS011;2227;47.810;8.810;2023-02-02T17:45:20;718.23;;;650.47;;
4428;SDS011;2227;47.810;8.810;2023-02-02T17:47:49;718.97;;;650.38;;
4428;SDS011;2227;47.810;8.810;2023-02-02T17:50:16;708.90;;;640.78;;
4428;SDS011;2227;47.810;8.810;2023-02-02T17:52:43;707.35;;;639.53;;
4428;SDS011;2227;47.810;8.810;2023-02-02T17:55:19;709.45;;;641.33;;
4428;SDS011;2227;47.810;8.810;2023-02-02T17:57:51;703.97;;;635.88;;
4428;SDS011;2227;47.810;8.810;2023-02-02T18:00:20;697.97;;;630.17;;
4428;SDS011;2227;47.810;8.810;2023-02-02T18:02:50;704.10;;;636.45;;
4428;SDS011;2227;47.810;8.810;2023-02-02T18:05:22;699.27;;;631.70;;
4428;SDS011;2227;47.810;8.810;2023-02-02T18:07:49;706.72;;;638.60;;
4428;SDS011;2227;47.810;8.810;2023-02-02T18:10:16;708.73;;;641.13;;
4428;SDS011;2227;47.810;8.810;2023-02-02T18:12:44;701.53;;;632.83;;
4428;SDS011;2227;47.810;8.810;2023-02-02T18:15:11;703.05;;;634.42;;
4428;SDS011;2227;47.810;8.810;2023-02-02T18:17:40;688.92;;;619.65;;
4428;SDS011;2227;47.810;8.810;2023-02-02T18:20:07;696.65;;;628.05;;
4428;SDS011;2227;47.810;8.810;2023-02-02T18:22:36;693.42;;;624.85;;
4428;SDS011;2227;47.810;8.810;2023-02-02T18:25:03;688.27;;;619.57;;
4428;SDS011;2227;47.810;8.810;2023-02-02T18:27:31;696.05;;;627.85;;
4428;SDS011;2227;47.810;8.810;2023-02-02T18:29:57;701.92;;;634.05;;
4428;SDS011;2227;47.810;8.810;2023-02-02T18:32:24;699.63;;;632.28;;
4428;SDS011;2227;47.810;8.810;2023-02-02T18:34:51;694.80;;;627.90;;
4428;SDS011;2227;47.810;8.810;2023-02-02T18:37:21;699.53;;;632.42;;
4428;SDS011;2227;47.810;8.810;2023-02-02T18:39:49;691.38;;;624.58;;
4428;SDS011;2227;47.810;8.810;2023-02-02T18:42:16;701.92;;;634.30;;
4428;SDS011;2227;47.810;8.810;2023-02-02T18:44:43;697.10;;;629.88;;
4428;SDS011;2227;47.810;8.810;2023-02-02T18:47:10;698.38;;;630.92;;
4428;SDS011;2227;47.810;8.810;2023-02-02T18:49:37;697.10;;;629.63;;
4428;SDS011;2227;47.810;8.810;2023-02-02T18:52:03;701.97;;;634.55;;
4428;SDS011;2227;47.810;8.810;2023-02-02T18:54:30;706.08;;;638.30;;
4428;SDS011;2227;47.810;8.810;2023-02-02T18:56:58;703.65;;;636.30;;
4428;SDS011;2227;47.810;8.810;2023-02-02T18:59:25;705.28;;;638.70;;
4428;SDS011;2227;47.810;8.810;2023-02-02T19:01:53;709.53;;;642.17;;
4428;SDS011;2227;47.810;8.810;2023-02-02T19:04:20;706.80;;;639.10;;
4428;SDS011;2227;47.810;8.810;2023-02-02T19:06:47;704.88;;;637.85;;
4428;SDS011;2227;47.810;8.810;2023-02-02T19:09:32;706.63;;;640.10;;
4428;SDS011;2227;47.810;8.810;2023-02-02T19:12:00;704.15;;;637.55;;
4428;SDS011;2227;47.810;8.810;2023-02-02T19:14:29;699.50;;;633.10;;
4428;SDS011;2227;47.810;8.810;2023-02-02T19:16:59;700.75;;;634.10;;
4428;SDS011;2227;47.810;8.810;2023-02-02T19:19:34;711.03;;;644.33;;
4428;SDS011;2227;47.810;8.810;2023-02-02T19:22:20;695.67;;;629.20;;
4428;SDS011;2227;47.810;8.810;2023-02-02T19:24:49;698.57;;;631.90;;
4428;SDS011;2227;47.810;8.810;2023-02-02T19:27:20;696.67;;;630.70;;
4428;SDS011;2227;47.810;8.810;2023-02-02T19:29:49;687.53;;;620.70;;
4428;SDS011;2227;47.810;8.810;2023-02-02T19:32:20;699.47;;;634.08;;
4428;SDS011;2227;47.810;8.810;2023-02-02T19:34:54;704.65;;;638.92;;
4428;SDS011;2227;47.810;8.810;2023-02-02T19:37:24;701.70;;;635.33;;
4428;SDS011;2227;47.810;8.810;2023-02-02T19:39:53;705.88;;;639.10;;
4428;SDS011;2227;47.810;8.810;2023-02-02T19:42:27;704.60;;;637.87;;
4428;SDS011;2227;47.810;8.810;2023-02-02T19:44:54;710.60;;;644.95;;
4428;SDS011;2227;47.810;8.810;2023-02-02T19:47:26;704.88;;;639.38;;
4428;SDS011;2227;47.810;8.810;2023-02-02T19:49:57;704.15;;;638.15;;
4428;SDS011;2227;47.810;8.810;2023-02-02T19:52:37;700.78;;;634.88;;
4428;SDS011;2227;47.810;8.810;2023-02-02T19:55:13;695.50;;;630.53;;
4428;SDS011;2227;47.810;8.810;2023-02-02T19:57:46;697.70;;;633.25;;
4428;SDS011;2227;47.810;8.810;2023-02-02T20:05:31;702.88;;;638.00;;
4428;SDS011;2227;47.810;8.810;2023-02-02T20:08:04;706.38;;;642.10;;
4428;SDS011;2227;47.810;8.810;2023-02-02T20:10:38;710.92;;;645.75;;
4428;SDS011;2227;47.810;8.810;2023-02-02T20:13:20;699.33;;;633.90;;
4428;SDS011;2227;47.810;8.810;2023-02-02T20:15:59;703.55;;;638.65;;
4428;SDS011;2227;47.810;8.810;2023-02-02T20:21:08;693.28;;;627.88;;
4428;SDS011;2227;47.810;8.810;2023-02-02T20:23:57;706.78;;;641.40;;
4428;SDS011;2227;47.810;8.810;2023-02-02T20:29:12;700.47;;;636.33;;
4428;SDS011;2227;47.810;8.810;2023-02-02T20:31:42;698.10;;;633.95;;
4428;SDS011;2227;47.810;8.810;2023-02-02T20:34:19;703.70;;;638.22;;
4428;SDS011;2227;47.810;8.810;2023-02-02T20:36:49;698.63;;;633.20;;
4428;SDS011;2227;47.810;8.810;2023-02-02T20:39:22;698.23;;;633.23;;
4428;SDS011;2227;47.810;8.810;2023-02-02T20:41:52;691.15;;;625.60;;
4428;SDS011;2227;47.810;8.810;2023-02-02T20:44:22;696.97;;;631.50;;
4428;SDS011;2227;47.810;8.810;2023-02-02T20:46:50;685.75;;;621.45;;
4428;SDS011;2227;47.810;8.810;2023-02-02T20:49:17;694.65;;;630.65;;
4428;SDS011;2227;47.810;8.810;2023-02-02T20:51:45;695.45;;;631.45;;
4428;SDS011;2227;47.810;8.810;2023-02-02T20:54:12;698.42;;;634.05;;
4428;SDS011;2227;47.810;8.810;2023-02-02T20:56:39;699.22;;;635.00;;
4428;SDS011;2227;47.810;8.810;2023-02-02T20:59:06;705.33;;;640.72;;
4428;SDS011;2227;47.810;8.810;2023-02-02T21:01:33;710.63;;;645.75;;
4428;SDS011;2227;47.810;8.810;2023-02-02T21:04:00;708.80;;;643.30;;
4428;SDS011;2227;47.810;8.810;2023-02-02T21:06:30;706.08;;;640.70;;
4428;SDS011;2227;47.810;8.810;2023-02-02T21:08:57;698.83;;;632.53;;
4428;SDS011;2227;47.810;8.810;2023-02-02T21:11:23;702.10;;;637.30;;
4428;SDS011;2227;47.810;8.810;2023-02-02T21:13:50;701.17;;;636.20;;
4428;SDS011;2227;47.810;8.810;2023-02-02T21:16:20;697.05;;;632.88;;
4428;SDS011;2227;47.810;8.810;2023-02-02T21:18:47;693.60;;;629.77;;
4428;SDS011;2227;47.810;8.810;2023-02-02T21:21:15;694.22;;;629.53;;
4428;SDS011;2227;47.810;8.810;2023-02-02T21:23:44;690.15;;;625.47;;
4428;SDS011;2227;47.810;8.810;2023-02-02T21:26:14;689.73;;;625.43;;
4428;SDS011;2227;47.810;8.810;2023-02-02T21:28:42;690.13;;;625.63;;
4428;SDS011;2227;47.810;8.810;2023-02-02T21:31:10;691.13;;;626.93;;
4428;SDS011;2227;47.810;8.810;2023-02-02T21:33:42;688.53;;;624.65;;
4428;SDS011;2227;47.810;8.810;2023-02-02T21:38:58;685.33;;;622.03;;
4428;SDS011;2227;47.810;8.810;2023-02-02T21:41:53;696.50;;;632.60;;
4428;SDS011;2227;47.810;8.810;2023-02-02T21:44:45;690.28;;;626.47;;
4428;SDS011;2227;47.810;8.810;2023-02-02T21:47:31;691.80;;;627.87;;
4428;SDS011;2227;47.810;8.810;2023-02-02T21:50:16;687.50;;;623.80;;
4428;SDS011;2227;47.810;8.810;2023-02-02T21:52:51;681.80;;;618.30;;
4428;SDS011;2227;47.810;8.810;2023-02-02T21:55:33;684.50;;;621.03;;
4428;SDS011;2227;47.810;8.810;2023-02-02T22:03:42;684.70;;;620.80;;
4428;SDS011;2227;47.810;8.810;2023-02-02T22:06:17;674.05;;;610.70;;
4428;SDS011;2227;47.810;8.810;2023-02-02T22:09:14;675.03;;;611.33;;
4428;SDS011;2227;47.810;8.810;2023-02-02T22:11:51;680.47;;;616.58;;
4428;SDS011;2227;47.810;8.810;2023-02-02T22:17:45;675.55;;;612.22;;
4428;SDS011;2227;47.810;8.810;2023-02-02T22:20:08;684.17;;;620.83;;